createdAt,value
2018-10-11T00:01:27.723Z,58.41
2018-10-11T00:04:01.546Z,58.13
2018-10-11T00:06:35.511Z,57.65
2018-10-11T00:09:10.764Z,57.73
2018-10-11T00:11:44.677Z,57.65
2018-10-11T00:14:18.577Z,57.46
2018-10-11T00:16:52.435Z,57.15
2018-10-11T00:19:26.248Z,57.71
2018-10-11T00:22:00.109Z,57.96
2018-10-11T00:24:33.913Z,58.24
2018-10-11T00:27:07.853Z,58.26
2018-10-11T00:29:41.763Z,58.33
2018-10-11T00:32:15.679Z,58.39
2018-10-11T00:34:49.499Z,58.20
2018-10-11T00:37:23.399Z,58.05
2018-10-11T00:39:57.260Z,57.92
2018-10-11T00:42:31.142Z,57.96
2018-10-11T00:45:05.061Z,57.89
2018-10-11T00:47:39.008Z,58.08
2018-10-11T00:50:12.833Z,58.23
2018-10-11T00:52:46.747Z,58.53
2018-10-11T00:55:20.579Z,59.01
2018-10-11T00:57:54.521Z,58.76
2018-10-11T01:00:28.354Z,58.75
2018-10-11T01:03:02.196Z,58.92
2018-10-11T01:05:36.005Z,59.06
2018-10-11T01:08:09.996Z,58.86
2018-10-11T01:10:43.792Z,58.91
2018-10-11T01:13:17.777Z,59.18
2018-10-11T01:15:51.645Z,59.40
2018-10-11T01:18:25.613Z,59.42
2018-10-11T01:20:59.435Z,59.92
2018-10-11T01:23:33.291Z,59.77
2018-10-11T01:26:07.181Z,60.00
2018-10-11T01:28:41.093Z,59.03
2018-10-11T01:31:22.319Z,59.48
2018-10-11T01:33:56.589Z,59.41
2018-10-11T01:36:30.584Z,59.57
2018-10-11T01:39:05.258Z,59.84
2018-10-11T01:41:39.239Z,59.56
2018-10-11T01:44:13.217Z,60.66
2018-10-11T01:46:47.148Z,60.09
2018-10-11T01:49:21.219Z,60.55
2018-10-11T01:51:55.219Z,60.12
2018-10-11T01:54:29.223Z,60.25
2018-10-11T01:57:03.296Z,60.23
2018-10-11T01:59:38.984Z,60.49
2018-10-11T02:02:12.938Z,60.60
2018-10-11T02:04:46.902Z,60.60
2018-10-11T02:07:20.878Z,60.79
2018-10-11T02:09:54.858Z,60.41
2018-10-11T02:12:28.975Z,60.63
2018-10-11T02:15:02.945Z,60.40
2018-10-11T02:17:36.890Z,60.21
2018-10-11T02:20:10.975Z,59.97
2018-10-11T02:22:44.927Z,60.65
2018-10-11T02:25:18.918Z,60.34
2018-10-11T02:27:52.863Z,60.58
2018-10-11T02:30:26.902Z,60.41
2018-10-11T02:33:01.033Z,60.23
2018-10-11T02:35:35.087Z,60.71
2018-10-11T02:38:09.105Z,60.51
2018-10-11T02:40:43.050Z,60.14
2018-10-11T02:43:16.982Z,60.69
2018-10-11T02:45:50.968Z,61.31
2018-10-11T02:48:24.894Z,62.93
2018-10-11T02:50:59.159Z,61.62
2018-10-11T02:53:33.137Z,61.29
2018-10-11T02:56:07.404Z,61.40
2018-10-11T02:58:52.408Z,61.54
2018-10-11T03:01:26.469Z,61.40
2018-10-11T03:04:04.517Z,60.98
2018-10-11T03:06:39.813Z,60.90
2018-10-11T03:09:13.989Z,61.10
2018-10-11T03:11:48.267Z,60.87
2018-10-11T03:14:22.276Z,60.79
2018-10-11T03:16:56.306Z,60.82
2018-10-11T03:19:30.279Z,60.54
2018-10-11T03:22:04.385Z,60.75
2018-10-11T03:24:38.422Z,60.80
2018-10-11T03:27:12.534Z,60.62
2018-10-11T03:29:46.547Z,61.42
2018-10-11T03:32:20.607Z,61.72
2018-10-11T03:34:54.595Z,61.73
2018-10-11T03:37:28.692Z,61.39
2018-10-11T03:40:02.625Z,61.53
2018-10-11T03:42:36.729Z,61.38
2018-10-11T03:45:11.027Z,61.52
2018-10-11T03:47:45.141Z,61.22
2018-10-11T03:50:19.105Z,61.36
2018-10-11T03:52:53.198Z,60.96
2018-10-11T03:55:27.626Z,60.70
2018-10-11T03:58:01.595Z,61.11
2018-10-11T04:00:35.617Z,61.70
2018-10-11T04:03:09.630Z,61.31
2018-10-11T04:05:43.595Z,61.06
2018-10-11T04:08:17.560Z,61.02
2018-10-11T04:10:52.538Z,60.32
2018-10-11T04:13:26.615Z,60.16
2018-10-11T04:16:00.959Z,60.47
2018-10-11T04:18:39.719Z,60.26
2018-10-11T04:21:13.636Z,60.54
2018-10-11T04:23:47.604Z,61.09
2018-10-11T04:26:21.680Z,60.48
2018-10-11T04:28:55.639Z,60.95
2018-10-11T04:31:29.612Z,60.56
2018-10-11T04:34:03.650Z,60.67
2018-10-11T04:36:37.591Z,60.88
2018-10-11T04:39:11.559Z,61.17
2018-10-11T04:41:45.526Z,61.18
2018-10-11T04:44:19.464Z,60.63
2018-10-11T04:46:53.489Z,60.94
2018-10-11T04:49:27.529Z,60.80
2018-10-11T04:52:01.512Z,60.64
2018-10-11T04:54:35.460Z,60.49
2018-10-11T04:57:09.445Z,60.28
2018-10-11T04:59:43.434Z,61.04
2018-10-11T05:02:17.393Z,60.66
2018-10-11T05:04:51.493Z,60.85
2018-10-11T05:07:25.537Z,60.66
2018-10-11T05:09:59.548Z,60.60
2018-10-11T05:12:33.568Z,61.02
2018-10-11T05:15:07.857Z,60.92
2018-10-11T05:17:42.920Z,60.63
2018-10-11T05:20:17.022Z,61.14
2018-10-11T05:22:51.044Z,60.87
2018-10-11T05:25:25.193Z,61.28
2018-10-11T05:27:59.205Z,60.70
2018-10-11T05:30:33.166Z,61.16
2018-10-11T05:33:07.329Z,61.16
2018-10-11T05:35:41.274Z,61.01
2018-10-11T05:38:15.379Z,60.90
2018-10-11T05:40:49.368Z,61.37
2018-10-11T05:43:23.566Z,60.96
2018-10-11T05:45:59.252Z,61.53
2018-10-11T05:48:34.478Z,61.72
2018-10-11T05:51:08.531Z,61.57
2018-10-11T05:53:42.604Z,61.68
2018-10-11T05:56:17.596Z,61.60
2018-10-11T05:58:52.382Z,61.06
2018-10-11T06:01:26.567Z,61.13
2018-10-11T06:04:00.661Z,61.09
2018-10-11T06:06:34.678Z,61.16
2018-10-11T06:09:10.300Z,61.00
2018-10-11T06:11:45.538Z,61.16
2018-10-11T06:14:19.603Z,61.43
2018-10-11T06:16:53.624Z,61.88
2018-10-11T06:19:27.805Z,62.39
2018-10-11T06:22:01.848Z,61.91
2018-10-11T06:24:36.319Z,62.28
2018-10-11T06:27:10.312Z,62.23
2018-10-11T06:29:44.355Z,62.21
2018-10-11T06:32:18.504Z,62.60
2018-10-11T06:34:52.617Z,62.53
2018-10-11T06:37:27.107Z,62.00
2018-10-11T06:40:02.196Z,61.83
2018-10-11T06:42:36.250Z,61.74
2018-10-11T06:45:11.351Z,62.26
2018-10-11T06:47:47.992Z,61.73
2018-10-11T06:50:22.143Z,62.15
2018-10-11T06:52:56.179Z,62.46
2018-10-11T06:55:30.183Z,61.98
2018-10-11T06:58:04.237Z,62.25
2018-10-11T07:00:38.199Z,61.48
2018-10-11T07:03:12.277Z,61.21
2018-10-11T07:05:46.276Z,60.97
2018-10-11T07:08:20.271Z,60.86
2018-10-11T07:10:54.776Z,60.68
2018-10-11T07:13:28.689Z,60.45
2018-10-11T07:16:02.839Z,60.63
2018-10-11T07:18:36.849Z,60.36
2018-10-11T07:21:11.114Z,60.53
2018-10-11T07:23:45.064Z,59.99
2018-10-11T07:26:19.089Z,59.74
2018-10-11T07:28:53.082Z,59.63
2018-10-11T07:31:27.080Z,59.49
2018-10-11T07:34:01.047Z,59.69
2018-10-11T07:36:35.010Z,59.14
2018-10-11T07:39:11.804Z,59.20
2018-10-11T07:41:45.897Z,58.69
2018-10-11T07:44:19.838Z,58.66
2018-10-11T07:46:53.868Z,58.03
2018-10-11T07:49:27.849Z,57.91
2018-10-11T07:52:01.793Z,58.04
2018-10-11T07:54:36.673Z,57.95
2018-10-11T07:57:10.787Z,57.77
2018-10-11T07:59:44.740Z,57.88
2018-10-11T08:02:18.833Z,57.88
2018-10-11T08:04:52.773Z,57.15
2018-10-11T08:07:26.849Z,57.02
2018-10-11T08:10:00.736Z,56.69
2018-10-11T08:12:34.801Z,56.67
2018-10-11T08:15:08.739Z,56.28
2018-10-11T08:17:43.015Z,56.01
2018-10-11T08:20:16.802Z,55.63
2018-10-11T08:22:50.786Z,55.69
2018-10-11T08:25:24.937Z,55.38
2018-10-11T08:28:00.241Z,54.93
2018-10-11T08:30:34.267Z,55.02
2018-10-11T08:33:08.450Z,53.61
2018-10-11T08:35:42.349Z,54.36
2018-10-11T08:38:16.690Z,54.58
2018-10-11T08:40:50.436Z,53.68
2018-10-11T08:43:24.692Z,52.62
2018-10-11T08:45:58.622Z,53.33
2018-10-11T08:48:32.592Z,53.61
2018-10-11T08:51:06.649Z,52.41
2018-10-11T08:53:40.783Z,51.78
2018-10-11T08:56:14.852Z,51.35
2018-10-11T08:58:48.854Z,50.93
2018-10-11T09:01:22.808Z,50.59
2018-10-11T09:03:57.533Z,50.96
2018-10-11T09:06:31.330Z,51.53
2018-10-11T09:09:07.759Z,49.53
2018-10-11T09:11:41.729Z,49.84
2018-10-11T09:14:15.802Z,50.66
2018-10-11T09:16:49.776Z,50.31
2018-10-11T09:19:23.874Z,49.70
2018-10-11T09:21:57.812Z,47.28
2018-10-11T09:24:31.921Z,49.31
2018-10-11T09:27:05.917Z,48.21
2018-10-11T09:29:39.925Z,47.00
2018-10-11T09:32:13.852Z,45.27
2018-10-11T09:34:47.837Z,47.84
2018-10-11T09:37:21.858Z,47.11
2018-10-11T09:39:55.913Z,47.00
2018-10-11T09:42:29.992Z,47.25
2018-10-11T09:45:04.190Z,47.90
2018-10-11T09:47:38.140Z,47.75
2018-10-11T09:50:12.135Z,48.08
2018-10-11T09:52:46.086Z,48.15
2018-10-11T09:55:20.148Z,48.72
2018-10-11T09:57:54.254Z,48.50
2018-10-11T10:00:33.206Z,47.43
2018-10-11T10:03:07.205Z,47.73
2018-10-11T10:05:41.215Z,46.01
2018-10-11T10:08:15.142Z,46.30
2018-10-11T10:10:49.095Z,43.73
2018-10-11T10:13:23.061Z,45.19
2018-10-11T10:15:57.057Z,44.94
2018-10-11T10:18:31.019Z,44.24
2018-10-11T10:21:05.272Z,44.83
2018-10-11T10:23:39.194Z,44.71
2018-10-11T10:26:13.197Z,45.52
2018-10-11T10:28:47.125Z,45.29
2018-10-11T10:31:21.116Z,43.01
2018-10-11T10:33:55.071Z,43.31
2018-10-11T10:36:29.068Z,43.20
2018-10-11T10:39:03.194Z,42.99
2018-10-11T10:41:37.153Z,43.62
2018-10-11T10:44:11.146Z,43.56
2018-10-11T10:46:45.193Z,43.04
2018-10-11T10:49:19.184Z,42.86
2018-10-11T10:51:53.225Z,42.60
2018-10-11T10:54:34.435Z,43.17
2018-10-11T10:57:08.441Z,42.85
2018-10-11T10:59:42.400Z,43.05
2018-10-11T11:02:16.500Z,44.04
2018-10-11T11:04:50.469Z,42.25
2018-10-11T11:07:24.820Z,43.52
2018-10-11T11:09:58.722Z,43.86
2018-10-11T11:12:32.797Z,43.67
2018-10-11T11:15:06.834Z,43.01
2018-10-11T11:17:40.811Z,41.63
2018-10-11T11:20:14.893Z,43.15
2018-10-11T11:22:48.982Z,41.18
2018-10-11T11:25:23.043Z,42.53
2018-10-11T11:27:57.025Z,42.47
2018-10-11T11:30:30.980Z,41.85
2018-10-11T11:33:04.982Z,41.80
2018-10-11T11:35:38.929Z,40.25
2018-10-11T11:38:12.923Z,41.23
2018-10-11T11:40:46.928Z,41.12
2018-10-11T11:43:20.914Z,40.36
2018-10-11T11:45:55.013Z,40.66
2018-10-11T11:48:29.105Z,39.29
2018-10-11T11:51:03.059Z,38.01
2018-10-11T11:53:37.495Z,39.29
2018-10-11T11:56:11.901Z,38.85
2018-10-11T11:58:45.904Z,38.67
2018-10-11T12:01:19.829Z,37.08
2018-10-11T12:03:53.985Z,36.49
2018-10-11T12:06:28.075Z,35.71
2018-10-11T12:09:02.140Z,36.74
2018-10-11T12:11:36.071Z,36.89
2018-10-11T12:14:10.363Z,36.50
2018-10-11T12:16:44.468Z,37.29
2018-10-11T12:19:18.353Z,37.89
2018-10-11T12:21:52.286Z,38.04
2018-10-11T12:24:26.274Z,38.63
2018-10-11T12:27:00.257Z,37.42
2018-10-11T12:29:34.214Z,37.78
2018-10-11T12:32:08.351Z,38.38
2018-10-11T12:34:42.377Z,38.27
2018-10-11T12:37:16.351Z,38.50
2018-10-11T12:39:50.433Z,38.82
2018-10-11T12:42:24.498Z,38.58
2018-10-11T12:44:58.470Z,38.45
2018-10-11T12:47:32.440Z,38.32
2018-10-11T12:50:07.013Z,39.31
2018-10-11T12:52:41.279Z,37.90
2018-10-11T12:55:15.400Z,38.76
2018-10-11T12:57:49.331Z,37.54
2018-10-11T13:00:23.355Z,39.00
2018-10-11T13:02:57.406Z,39.14
2018-10-11T13:05:31.350Z,39.13
2018-10-11T13:08:05.332Z,38.92
2018-10-11T13:10:39.364Z,38.71
2018-10-11T13:13:13.393Z,38.65
2018-10-11T13:15:47.548Z,38.21
2018-10-11T13:18:21.570Z,39.32
2018-10-11T13:20:55.537Z,38.65
2018-10-11T13:23:29.471Z,37.89
2018-10-11T13:26:03.458Z,39.06
2018-10-11T13:28:37.519Z,39.22
2018-10-11T13:31:11.490Z,38.84
2018-10-11T13:33:45.485Z,39.04
2018-10-11T13:36:19.470Z,39.43
2018-10-11T13:38:53.436Z,38.93
2018-10-11T13:41:27.644Z,38.19
2018-10-11T13:44:01.534Z,38.96
2018-10-11T13:46:35.612Z,39.53
2018-10-11T13:49:09.657Z,40.45
2018-10-11T13:51:43.759Z,39.72
2018-10-11T13:54:18.843Z,40.06
2018-10-11T13:56:58.013Z,38.62
2018-10-11T13:59:26.979Z,40.41
2018-10-11T14:02:01.048Z,40.12
2018-10-11T14:04:35.080Z,38.67
2018-10-11T14:07:09.034Z,40.11
2018-10-11T14:09:42.994Z,40.36
2018-10-11T14:12:17.180Z,39.40
2018-10-11T14:14:51.141Z,38.96
2018-10-11T14:17:25.143Z,40.02
2018-10-11T14:19:59.089Z,38.63
2018-10-11T14:22:33.187Z,38.57
2018-10-11T14:25:08.031Z,38.19
2018-10-11T14:27:42.176Z,39.61
2018-10-11T14:30:16.133Z,40.56
2018-10-11T14:32:50.165Z,40.92
2018-10-11T14:35:24.142Z,40.64
2018-10-11T14:37:58.171Z,40.72
2018-10-11T14:40:32.129Z,39.51
2018-10-11T14:43:06.468Z,38.99
2018-10-11T14:45:40.464Z,39.35
2018-10-11T14:48:14.645Z,40.01
2018-10-11T14:50:48.662Z,40.08
2018-10-11T14:53:22.637Z,40.43
2018-10-11T14:55:56.588Z,39.92
2018-10-11T14:58:30.590Z,40.49
2018-10-11T15:01:04.591Z,40.68
2018-10-11T15:03:38.559Z,39.39
2018-10-11T15:06:12.546Z,38.51
2018-10-11T15:08:46.503Z,39.03
2018-10-11T15:11:20.554Z,39.19
2018-10-11T15:13:54.514Z,39.24
2018-10-11T15:16:28.490Z,37.97
2018-10-11T15:19:02.552Z,37.72
2018-10-11T15:21:36.469Z,38.07
2018-10-11T15:24:10.539Z,38.72
2018-10-11T15:26:44.554Z,39.42
2018-10-11T15:29:18.694Z,39.27
2018-10-11T15:31:52.635Z,38.41
2018-10-11T15:34:26.621Z,39.71
2018-10-11T15:37:00.710Z,40.20
2018-10-11T15:39:34.699Z,39.84
2018-10-11T15:42:08.717Z,40.49
2018-10-11T15:44:42.778Z,40.04
2018-10-11T15:47:16.775Z,41.35
2018-10-11T15:49:50.787Z,41.15
2018-10-11T15:52:24.793Z,40.32
2018-10-11T15:54:58.860Z,41.50
2018-10-11T15:57:32.804Z,41.65
2018-10-11T16:00:07.103Z,42.10
2018-10-11T16:02:41.047Z,41.94
2018-10-11T16:05:15.075Z,42.24
2018-10-11T16:07:49.012Z,42.35
2018-10-11T16:10:23.046Z,43.16
2018-10-11T16:12:57.034Z,43.19
2018-10-11T16:15:31.127Z,43.20
2018-10-11T16:18:05.044Z,43.82
2018-10-11T16:20:39.223Z,43.27
2018-10-11T16:23:13.263Z,43.79
2018-10-11T16:25:47.416Z,43.77
2018-10-11T16:28:21.406Z,44.18
2018-10-11T16:30:55.443Z,44.17
2018-10-11T16:33:29.424Z,44.75
2018-10-11T16:36:03.433Z,45.86
2018-10-11T16:38:37.503Z,46.18
2018-10-11T16:41:11.645Z,46.00
2018-10-11T16:43:45.597Z,46.09
2018-10-11T16:46:19.632Z,45.90
2018-10-11T16:48:53.604Z,45.38
2018-10-11T16:51:27.595Z,45.54
2018-10-11T16:54:01.616Z,45.68
2018-10-11T16:56:35.646Z,45.57
2018-10-11T16:59:09.630Z,45.14
2018-10-11T17:01:43.685Z,45.29
2018-10-11T17:04:18.014Z,45.63
2018-10-11T17:06:52.060Z,45.64
2018-10-11T17:09:25.999Z,44.94
2018-10-11T17:12:02.495Z,45.00
2018-10-11T17:14:36.426Z,45.06
2018-10-11T17:17:10.432Z,45.58
2018-10-11T17:19:44.431Z,46.38
2018-10-11T17:22:18.515Z,45.90
2018-10-11T17:24:52.528Z,46.42
2018-10-11T17:27:26.560Z,46.54
2018-10-11T17:30:00.463Z,46.67
2018-10-11T17:32:34.443Z,47.34
2018-10-11T17:35:08.453Z,47.48
2018-10-11T17:37:42.528Z,47.34
2018-10-11T17:40:16.553Z,47.58
2018-10-11T17:42:50.576Z,47.72
2018-10-11T17:45:24.628Z,47.66
2018-10-11T17:47:58.605Z,47.87
2018-10-11T17:50:32.797Z,47.61
2018-10-11T17:53:07.263Z,47.67
2018-10-11T17:55:41.189Z,47.60
2018-10-11T17:58:15.148Z,47.85
2018-10-11T18:00:49.180Z,48.24
2018-10-11T18:03:23.186Z,48.54
2018-10-11T18:05:57.130Z,48.87
2018-10-11T18:08:31.480Z,48.77
2018-10-11T18:11:05.509Z,48.21
2018-10-11T18:13:39.604Z,48.86
2018-10-11T18:16:13.708Z,48.70
2018-10-11T18:18:47.738Z,48.58
2018-10-11T18:21:21.778Z,49.28
2018-10-11T18:23:55.729Z,49.47
2018-10-11T18:26:29.701Z,49.55
2018-10-11T18:29:03.888Z,49.54
2018-10-11T18:31:37.952Z,49.86
2018-10-11T18:34:11.948Z,50.18
2018-10-11T18:36:45.874Z,51.03
2018-10-11T18:39:19.856Z,51.12
2018-10-11T18:41:53.852Z,51.19
2018-10-11T18:44:27.975Z,51.50
2018-10-11T18:47:01.967Z,51.50
2018-10-11T18:49:36.049Z,51.84
2018-10-11T18:52:10.048Z,51.93
2018-10-11T18:54:44.326Z,51.96
2018-10-11T18:57:18.306Z,52.19
2018-10-11T18:59:52.634Z,52.11
2018-10-11T19:02:26.681Z,52.17
2018-10-11T19:05:00.745Z,52.05
2018-10-11T19:07:34.711Z,52.53
2018-10-11T19:10:09.825Z,52.27
2018-10-11T19:12:43.931Z,52.11
2018-10-11T19:15:19.870Z,52.14
2018-10-11T19:17:53.914Z,52.41
2018-10-11T19:20:28.127Z,52.76
2018-10-11T19:23:02.036Z,52.87
2018-10-11T19:25:36.726Z,52.62
2018-10-11T19:28:10.715Z,53.10
2018-10-11T19:30:44.763Z,53.33
2018-10-11T19:33:18.815Z,53.40
2018-10-11T19:35:52.801Z,53.26
2018-10-11T19:38:26.884Z,53.77
2018-10-11T19:41:01.065Z,53.89
2018-10-11T19:43:35.119Z,54.18
2018-10-11T19:46:09.810Z,54.33
2018-10-11T19:48:43.874Z,54.17
2018-10-11T19:51:17.925Z,54.21
2018-10-11T19:53:51.950Z,54.23
2018-10-11T19:56:31.325Z,54.19
2018-10-11T19:59:05.387Z,54.21
2018-10-11T20:01:39.361Z,54.26
2018-10-11T20:04:13.410Z,54.77
2018-10-11T20:06:47.359Z,54.43
2018-10-11T20:09:21.328Z,54.79
2018-10-11T20:11:55.317Z,54.58
2018-10-11T20:14:29.278Z,54.72
2018-10-11T20:17:03.387Z,54.88
2018-10-11T20:19:37.401Z,55.28
2018-10-11T20:22:12.284Z,54.92
2018-10-11T20:24:46.309Z,55.22
2018-10-11T20:27:20.259Z,55.27
2018-10-11T20:29:54.908Z,55.08
2018-10-11T20:32:28.988Z,55.57
2018-10-11T20:35:02.986Z,55.70
2018-10-11T20:37:37.287Z,55.80
2018-10-11T20:40:11.509Z,55.76
2018-10-11T20:42:45.467Z,55.94
2018-10-11T20:45:19.533Z,55.91
2018-10-11T20:47:53.525Z,56.04
2018-10-11T20:50:27.695Z,55.95
2018-10-11T20:53:01.736Z,55.84
2018-10-11T20:55:35.833Z,56.18
2018-10-11T20:58:10.010Z,56.20
2018-10-11T21:00:44.332Z,56.26
2018-10-11T21:03:18.350Z,56.48
2018-10-11T21:05:52.384Z,56.28
2018-10-11T21:08:26.443Z,56.51
2018-10-11T21:11:00.481Z,56.29
2018-10-11T21:13:34.491Z,56.32
2018-10-11T21:16:08.579Z,56.22
2018-10-11T21:18:42.558Z,56.13
2018-10-11T21:21:16.510Z,56.41
2018-10-11T21:23:50.484Z,56.02
2018-10-11T21:26:24.478Z,56.34
2018-10-11T21:28:58.427Z,56.71
2018-10-11T21:31:32.388Z,56.34
2018-10-11T21:34:06.590Z,56.36
2018-10-11T21:36:40.531Z,56.51
2018-10-11T21:39:14.592Z,56.40
2018-10-11T21:41:48.725Z,56.52
2018-10-11T21:44:22.787Z,56.72
2018-10-11T21:46:56.885Z,56.60
2018-10-11T21:49:31.278Z,56.77
2018-10-11T21:52:05.456Z,57.27
2018-10-11T21:54:39.377Z,57.05
2018-10-11T21:57:13.350Z,57.00
2018-10-11T21:59:47.371Z,56.66
2018-10-11T22:02:21.362Z,56.77
2018-10-11T22:04:55.321Z,56.95
2018-10-11T22:07:29.392Z,56.90
2018-10-11T22:10:03.380Z,56.91
2018-10-11T22:12:37.315Z,57.02
2018-10-11T22:15:11.403Z,57.05
2018-10-11T22:17:45.389Z,56.88
2018-10-11T22:20:19.454Z,57.16
2018-10-11T22:22:53.462Z,57.20
2018-10-11T22:25:28.769Z,57.22
2018-10-11T22:28:02.779Z,57.72
2018-10-11T22:30:36.752Z,57.64
2018-10-11T22:33:10.750Z,57.88
2018-10-11T22:35:44.727Z,57.65
2018-10-11T22:38:18.889Z,57.47
2018-10-11T22:40:52.970Z,57.40
2018-10-11T22:43:27.003Z,57.06
2018-10-11T22:46:01.106Z,57.49
2018-10-11T22:48:35.140Z,57.48
2018-10-11T22:51:09.192Z,57.58
2018-10-11T22:53:43.501Z,57.58
2018-10-11T22:56:21.050Z,57.56
2018-10-11T22:58:55.136Z,57.36
2018-10-11T23:01:29.179Z,57.79
2018-10-11T23:04:03.297Z,58.01
2018-10-11T23:06:37.235Z,58.02
2018-10-11T23:09:11.411Z,57.76
2018-10-11T23:11:45.424Z,57.70
2018-10-11T23:14:19.561Z,57.86
2018-10-11T23:16:53.520Z,57.65
2018-10-11T23:19:27.883Z,57.52
2018-10-11T23:22:01.828Z,58.00
2018-10-11T23:24:35.764Z,57.77
2018-10-11T23:27:09.697Z,58.27
2018-10-11T23:29:43.655Z,58.20
2018-10-11T23:32:17.567Z,58.36
2018-10-11T23:34:51.514Z,58.04
2018-10-11T23:37:25.530Z,58.16
2018-10-11T23:39:59.913Z,58.12
2018-10-11T23:42:33.864Z,58.43
2018-10-11T23:45:09.055Z,58.30
2018-10-11T23:47:43.585Z,58.60
2018-10-11T23:50:17.699Z,58.53
2018-10-11T23:52:51.655Z,58.51
2018-10-11T23:55:25.700Z,58.62
2018-10-11T23:57:59.962Z,58.54
